Time;durP1;ratioP1;P1;durP2;ratioP2;P2;SDS_P1;SDS_P2;PMS_P1;PMS_P2;Temp;Humidity;BMP_temperature;BMP_pressure;BME280_temperature;BME280_humidity;BME280_pressure;Samples;Min_cycle;Max_cycle;Signal;HPM_P1;HPM_P2
2021/12/24 00:02:11;;;;;;;41.40;30.75;;;3.10;99.90;;;;;;4975694;28;20034;-76
2021/12/24 00:04:36;;;;;;;42.50;31.60;;;3.10;99.90;;;;;;4978700;28;20405;-76
2021/12/24 00:07:02;;;;;;;37.33;30.65;;;3.00;99.90;;;;;;4974698;28;20034;-76
2021/12/24 00:09:32;;;;;;;39.20;30.60;;;3.00;99.90;;;;;;4972380;28;20019;-75
2021/12/24 00:12:00;;;;;;;42.70;31.98;;;3.00;99.90;;;;;;4972296;28;20485;-75
2021/12/24 00:14:28;;;;;;;41.95;32.40;;;3.00;99.90;;;;;;4976743;28;20457;-75
2021/12/24 00:16:57;;;;;;;39.92;30.13;;;3.00;99.90;;;;;;4973501;28;20026;-76
2021/12/24 00:19:59;;;;;;;44.00;32.95;;;3.20;99.90;;;;;;4976806;28;20225;-77
2021/12/24 00:36:05;;;;;;;35.65;29.45;;;3.30;99.90;;;;;;4972866;28;20097;-77
2021/12/24 00:38:31;;;;;;;41.33;30.85;;;3.40;99.90;;;;;;4973091;28;20110;-77
2021/12/24 00:40:57;;;;;;;41.65;30.42;;;3.40;99.90;;;;;;4975936;28;20026;-77
2021/12/24 00:43:22;;;;;;;38.58;30.45;;;3.60;99.90;;;;;;4980185;28;20027;-76
2021/12/24 00:45:51;;;;;;;41.35;29.88;;;3.40;99.90;;;;;;4972969;28;20073;-76
2021/12/24 00:48:19;;;;;;;43.45;32.80;;;3.60;99.90;;;;;;4972929;28;20534;-77
2021/12/24 00:51:17;;;;;;;43.60;33.60;;;3.60;99.90;;;;;;4971539;28;20089;-76
2021/12/24 00:56:10;;;;;;;44.28;34.22;;;3.50;99.90;;;;;;4972926;28;20019;-75
2021/12/24 00:58:37;;;;;;;43.80;33.63;;;3.70;99.90;;;;;;4977998;28;20038;-75
2021/12/24 01:01:04;;;;;;;45.13;32.80;;;3.50;99.90;;;;;;4972629;28;20026;-76
2021/12/24 01:03:30;;;;;;;45.70;32.65;;;3.60;99.90;;;;;;4972599;28;20037;-76
2021/12/24 01:05:56;;;;;;;44.35;31.55;;;3.80;99.90;;;;;;4972446;28;20034;-76
2021/12/24 01:08:22;;;;;;;43.58;32.42;;;3.60;99.90;;;;;;4973154;28;20031;-77
2021/12/24 01:10:52;;;;;;;41.00;30.92;;;3.60;99.90;;;;;;4973893;28;20031;-76
2021/12/24 01:13:18;;;;;;;45.33;32.55;;;3.70;99.90;;;;;;4973901;28;20027;-76
2021/12/24 01:15:59;;;;;;;39.17;30.65;;;3.80;99.90;;;;;;4974555;28;20045;-76
2021/12/24 01:18:38;;;;;;;41.97;31.77;;;3.70;99.90;;;;;;4975734;28;20022;-76
2021/12/24 01:21:21;;;;;;;47.85;33.90;;;3.60;99.90;;;;;;4979576;28;20445;-76
2021/12/24 01:23:52;;;;;;;48.58;32.53;;;3.80;99.90;;;;;;4985477;28;20027;-76
2021/12/24 01:26:49;;;;;;;46.15;33.65;;;3.70;99.90;;;;;;4986530;28;20069;-76
2021/12/24 01:40:20;;;;;;;46.50;32.55;;;3.90;99.90;;;;;;4953495;29;20041;-75
2021/12/24 01:42:48;;;;;;;47.22;34.13;;;3.90;99.90;;;;;;4986539;28;20117;-75
2021/12/24 01:45:16;;;;;;;51.97;33.90;;;4.00;99.90;;;;;;4991829;28;20101;-76
2021/12/24 01:47:42;;;;;;;53.88;33.25;;;3.80;99.90;;;;;;4992137;28;20034;-76
2021/12/24 01:50:08;;;;;;;47.40;33.20;;;3.80;99.90;;;;;;4980117;28;20031;-76
2021/12/24 01:52:33;;;;;;;52.22;34.35;;;3.80;99.90;;;;;;4974559;28;20114;-77
2021/12/24 01:54:59;;;;;;;44.30;32.08;;;4.10;99.90;;;;;;4976928;28;20057;-76
2021/12/24 01:57:25;;;;;;;47.92;32.83;;;4.00;99.90;;;;;;4989336;28;20061;-76
2021/12/24 01:59:51;;;;;;;53.13;34.45;;;4.00;99.90;;;;;;4976628;28;20043;-76
2021/12/24 02:02:17;;;;;;;52.75;34.55;;;3.90;99.90;;;;;;4995684;28;20053;-75
2021/12/24 02:04:42;;;;;;;41.05;31.65;;;4.00;99.90;;;;;;4986268;28;20034;-77
2021/12/24 02:07:08;;;;;;;49.20;32.72;;;4.20;99.90;;;;;;4976270;28;20019;-76
2021/12/24 02:09:34;;;;;;;52.42;34.40;;;4.10;99.90;;;;;;4984468;28;20022;-76
2021/12/24 02:12:01;;;;;;;48.67;33.05;;;4.10;99.90;;;;;;4976705;28;20045;-76
2021/12/24 02:14:33;;;;;;;39.33;29.90;;;4.30;99.90;;;;;;4974024;28;20047;-75
2021/12/24 02:28:17;;;;;;;34.60;24.75;;;4.70;99.90;;;;;;4975899;28;20023;-75
2021/12/24 02:30:45;;;;;;;31.08;24.33;;;5.00;99.90;;;;;;4984171;28;20114;-75
2021/12/24 02:33:12;;;;;;;31.45;25.58;;;5.10;99.90;;;;;;4975309;28;20109;-76
2021/12/24 02:35:38;;;;;;;32.38;25.00;;;5.20;99.90;;;;;;4985836;28;20025;-74
2021/12/24 02:38:04;;;;;;;27.88;22.67;;;5.40;99.90;;;;;;4990602;28;20027;-75
2021/12/24 02:40:30;;;;;;;31.40;24.55;;;5.50;99.90;;;;;;4984361;28;20030;-76
2021/12/24 02:42:58;;;;;;;30.65;23.35;;;5.60;99.90;;;;;;4980105;28;20026;-76
2021/12/24 02:45:26;;;;;;;30.00;23.10;;;5.70;99.90;;;;;;4983754;28;20109;-76
2021/12/24 02:48:11;;;;;;;33.33;24.33;;;5.80;99.90;;;;;;4988105;28;20033;-76
2021/12/24 02:56:10;;;;;;;27.58;22.08;;;5.70;99.90;;;;;;4969145;28;20077;-76
2021/12/24 02:58:46;;;;;;;29.13;23.05;;;5.80;99.90;;;;;;4993716;28;20052;-76
2021/12/24 03:01:15;;;;;;;30.90;22.48;;;5.50;99.90;;;;;;4983377;28;20060;-76
2021/12/24 03:03:44;;;;;;;30.10;21.75;;;5.60;99.90;;;;;;4979113;28;20134;-76
2021/12/24 03:06:10;;;;;;;27.42;21.88;;;5.60;99.90;;;;;;4984704;28;20023;-76
2021/12/24 03:08:35;;;;;;;29.27;22.25;;;5.50;99.90;;;;;;4987528;28;20441;-76
2021/12/24 03:11:01;;;;;;;30.73;23.25;;;5.50;99.90;;;;;;4983742;28;20038;-76
2021/12/24 03:13:28;;;;;;;28.92;21.50;;;5.40;99.90;;;;;;4978209;28;20027;-76
2021/12/24 03:15:58;;;;;;;34.47;24.52;;;5.50;99.90;;;;;;4974301;28;20397;-75
2021/12/24 03:18:28;;;;;;;27.75;21.70;;;5.30;99.90;;;;;;4987707;28;20019;-76
2021/12/24 03:26:38;;;;;;;26.27;21.25;;;5.30;99.90;;;;;;4980907;28;20030;-77
2021/12/24 03:29:06;;;;;;;30.75;22.33;;;5.50;99.90;;;;;;4982945;28;20027;-75
2021/12/24 03:31:33;;;;;;;29.27;21.85;;;5.40;99.90;;;;;;4987214;28;20034;-75
2021/12/24 03:33:59;;;;;;;26.25;18.75;;;5.30;99.90;;;;;;4985041;28;20469;-75
2021/12/24 03:36:26;;;;;;;32.22;22.13;;;5.40;99.90;;;;;;4980591;28;20038;-75
2021/12/24 03:38:52;;;;;;;29.92;22.92;;;5.40;99.90;;;;;;4982418;28;20389;-74
2021/12/24 03:41:18;;;;;;;31.60;22.42;;;5.30;99.90;;;;;;4987005;28;20097;-76
2021/12/24 03:43:44;;;;;;;26.10;20.27;;;5.20;99.90;;;;;;4983714;28;20444;-76
2021/12/24 03:46:14;;;;;;;30.30;23.23;;;5.60;99.90;;;;;;4980073;28;20026;-77
2021/12/24 03:48:50;;;;;;;30.38;22.35;;;5.40;99.90;;;;;;4980820;28;20109;-74
2021/12/24 03:56:27;;;;;;;29.38;22.25;;;5.30;99.90;;;;;;4983830;28;20082;-75
2021/12/24 03:58:53;;;;;;;29.83;22.08;;;5.30;99.90;;;;;;4986495;28;20034;-75
2021/12/24 04:01:18;;;;;;;25.38;19.95;;;5.40;99.90;;;;;;4983532;28;20035;-75
2021/12/24 04:03:44;;;;;;;26.73;20.90;;;5.40;99.90;;;;;;4979859;28;20030;-76
2021/12/24 04:06:10;;;;;;;24.65;19.42;;;5.40;99.90;;;;;;4981820;28;20485;-76
2021/12/24 04:08:36;;;;;;;25.92;18.73;;;5.80;99.90;;;;;;4980942;28;20563;-75
2021/12/24 04:11:02;;;;;;;25.23;19.15;;;5.70;99.90;;;;;;4982829;28;20043;-75
2021/12/24 04:13:28;;;;;;;26.75;18.40;;;5.80;99.90;;;;;;4986513;28;20031;-75
2021/12/24 04:15:53;;;;;;;20.95;17.65;;;5.80;99.90;;;;;;4980558;28;20044;-75
2021/12/24 04:18:34;;;;;;;25.40;18.33;;;5.80;99.90;;;;;;4986517;28;20031;-76
2021/12/24 04:26:32;;;;;;;20.65;17.63;;;5.70;99.90;;;;;;4977503;28;20033;-75
2021/12/24 04:28:58;;;;;;;22.45;17.25;;;5.80;99.90;;;;;;4992631;28;20034;-75
2021/12/24 04:31:31;;;;;;;25.95;19.25;;;5.80;99.90;;;;;;4979272;28;20030;-76
2021/12/24 04:34:00;;;;;;;25.30;18.60;;;5.80;99.90;;;;;;4983409;28;20058;-76
2021/12/24 05:03:11;;;;;;;24.65;18.83;;;6.00;99.90;;;;;;4972912;28;20037;-75
2021/12/24 05:10:37;;;;;;;20.15;17.38;;;6.40;99.90;;;;;;4985779;28;20453;-75
2021/12/24 05:13:08;;;;;;;21.75;17.67;;;6.40;99.90;;;;;;4971768;28;20081;-75
2021/12/24 05:15:37;;;;;;;22.83;17.13;;;6.40;99.90;;;;;;4974526;28;20033;-75
2021/12/24 05:23:17;;;;;;;20.73;17.15;;;6.40;99.90;;;;;;4985934;28;20041;-75
2021/12/24 05:25:45;;;;;;;20.50;16.75;;;6.30;99.90;;;;;;4972476;28;20027;-74
2021/12/24 05:28:11;;;;;;;21.40;16.52;;;6.30;99.90;;;;;;4988396;28;20039;-75
2021/12/24 05:30:38;;;;;;;21.55;17.98;;;6.20;99.90;;;;;;4986677;28;20585;-75
2021/12/24 05:33:03;;;;;;;18.52;16.55;;;6.30;99.90;;;;;;4978701;28;20034;-76
2021/12/24 05:35:29;;;;;;;22.23;16.98;;;6.10;99.90;;;;;;4974901;28;20023;-76
2021/12/24 05:37:54;;;;;;;21.27;16.48;;;6.20;99.90;;;;;;4989204;28;20029;-73
2021/12/24 05:40:20;;;;;;;20.40;17.00;;;6.30;99.90;;;;;;4976316;28;20059;-76
2021/12/24 05:42:45;;;;;;;21.92;16.85;;;6.30;99.90;;;;;;4978781;28;20030;-76
2021/12/24 05:45:11;;;;;;;21.85;17.90;;;6.30;99.90;;;;;;4984878;28;20088;-76
2021/12/24 05:47:37;;;;;;;25.48;16.90;;;6.30;99.90;;;;;;4992076;28;20392;-75
2021/12/24 05:50:05;;;;;;;23.33;17.23;;;6.40;99.90;;;;;;4976975;28;20038;-75
2021/12/24 05:52:32;;;;;;;20.52;16.73;;;6.40;99.90;;;;;;4989205;28;20066;-75
2021/12/24 05:54:58;;;;;;;19.45;16.02;;;6.20;99.90;;;;;;4986364;28;20022;-76
2021/12/24 05:57:24;;;;;;;20.02;15.50;;;6.40;99.90;;;;;;4982479;28;20023;-77
2021/12/24 05:59:50;;;;;;;20.65;16.20;;;6.50;99.90;;;;;;4984955;28;20030;-76
2021/12/24 06:02:15;;;;;;;21.95;16.10;;;6.50;99.90;;;;;;4991512;28;20418;-75
2021/12/24 06:04:41;;;;;;;19.08;15.65;;;6.50;99.90;;;;;;4995010;28;20102;-75
2021/12/24 06:07:06;;;;;;;19.02;15.45;;;6.50;99.90;;;;;;4991718;28;20030;-76
2021/12/24 06:09:32;;;;;;;19.55;16.45;;;6.40;99.90;;;;;;4985576;28;20053;-76
2021/12/24 06:11:58;;;;;;;17.67;15.65;;;6.70;99.90;;;;;;4980464;28;20377;-75
2021/12/24 06:14:23;;;;;;;19.50;15.07;;;6.50;99.90;;;;;;4984081;28;20035;-76
2021/12/24 06:17:01;;;;;;;20.30;15.38;;;6.60;99.90;;;;;;4988692;28;20078;-75
2021/12/24 06:19:27;;;;;;;17.75;14.27;;;6.50;99.90;;;;;;4986751;28;20057;-76
2021/12/24 06:21:54;;;;;;;19.92;15.43;;;6.60;99.90;;;;;;4981925;28;20516;-75
2021/12/24 06:24:19;;;;;;;16.70;14.30;;;6.60;99.90;;;;;;4983243;28;20169;-76
2021/12/24 06:26:46;;;;;;;19.88;15.68;;;6.60;99.90;;;;;;4988636;28;20495;-76
2021/12/24 06:29:11;;;;;;;18.23;15.63;;;6.50;99.90;;;;;;4987007;28;20026;-76
2021/12/24 06:31:37;;;;;;;19.75;15.38;;;6.50;99.90;;;;;;4976739;28;20088;-76
2021/12/24 06:34:03;;;;;;;19.02;15.85;;;6.70;99.90;;;;;;4974663;28;20019;-76
2021/12/24 06:36:34;;;;;;;18.52;16.15;;;6.50;99.90;;;;;;4977780;28;20042;-77
2021/12/24 06:38:59;;;;;;;18.23;15.25;;;6.40;99.90;;;;;;4974602;28;20441;-76
2021/12/24 06:41:25;;;;;;;17.08;14.63;;;6.50;99.90;;;;;;4989164;28;20035;-76
2021/12/24 06:43:50;;;;;;;19.40;16.00;;;6.50;99.90;;;;;;4974914;28;20500;-74
2021/12/24 06:46:16;;;;;;;17.85;15.68;;;6.50;99.90;;;;;;4980488;28;20037;-75
2021/12/24 06:48:42;;;;;;;18.98;15.23;;;6.40;99.90;;;;;;4982487;28;20502;-75
2021/12/24 06:51:08;;;;;;;19.42;16.17;;;6.50;99.90;;;;;;4980930;28;20044;-75
2021/12/24 06:53:33;;;;;;;20.63;15.57;;;6.50;99.90;;;;;;4980730;28;20023;-75
2021/12/24 06:55:59;;;;;;;20.58;17.23;;;6.40;99.90;;;;;;4990263;28;20023;-75
2021/12/24 06:58:24;;;;;;;21.25;16.63;;;6.40;99.90;;;;;;4992998;28;20023;-76
2021/12/24 07:00:50;;;;;;;20.10;16.98;;;6.50;99.90;;;;;;4975352;28;20034;-76
2021/12/24 07:03:15;;;;;;;20.60;16.73;;;6.50;99.90;;;;;;4987326;28;20034;-76
2021/12/24 07:05:41;;;;;;;20.90;16.38;;;6.60;99.90;;;;;;4975164;28;20031;-76
2021/12/24 07:08:06;;;;;;;24.13;18.65;;;6.70;99.90;;;;;;4974725;28;20413;-77
2021/12/24 07:10:32;;;;;;;28.20;19.90;;;6.50;99.90;;;;;;4987570;28;20100;-76
2021/12/24 07:12:58;;;;;;;23.98;19.73;;;6.40;99.90;;;;;;4986125;28;20110;-75
2021/12/24 07:15:23;;;;;;;24.13;20.00;;;6.40;99.90;;;;;;4976244;28;20540;-75
2021/12/24 07:17:49;;;;;;;27.60;22.23;;;6.30;99.90;;;;;;4973623;28;20046;-75
2021/12/24 07:20:15;;;;;;;30.83;24.52;;;6.30;99.90;;;;;;4987633;28;20027;-76
2021/12/24 07:22:41;;;;;;;32.67;24.17;;;6.30;99.90;;;;;;4984596;28;20104;-76
2021/12/24 07:25:07;;;;;;;33.53;24.30;;;6.10;99.90;;;;;;4980532;28;20662;-75
2021/12/24 07:27:34;;;;;;;32.88;24.63;;;6.10;99.90;;;;;;4983094;28;20031;-75
2021/12/24 07:30:00;;;;;;;37.35;27.42;;;6.00;99.90;;;;;;4974511;28;20018;-75
2021/12/24 07:32:25;;;;;;;36.83;26.35;;;5.90;99.90;;;;;;4993321;28;20504;-75
2021/12/24 07:34:51;;;;;;;37.90;26.67;;;6.00;99.90;;;;;;4980264;28;20473;-76
2021/12/24 07:37:17;;;;;;;33.17;25.27;;;6.00;99.90;;;;;;4983157;28;20370;-75
2021/12/24 07:39:42;;;;;;;44.75;29.85;;;6.10;99.90;;;;;;4987046;28;20438;-75
2021/12/24 07:42:08;;;;;;;36.42;27.52;;;5.90;99.90;;;;;;4973931;28;20101;-76
2021/12/24 07:44:35;;;;;;;37.22;27.33;;;5.80;99.90;;;;;;4973729;28;20046;-76
2021/12/24 07:47:03;;;;;;;31.63;23.80;;;5.90;99.90;;;;;;4974090;28;20066;-75
2021/12/24 07:49:32;;;;;;;35.28;27.08;;;5.70;99.90;;;;;;4989165;28;20025;-76
2021/12/24 07:52:08;;;;;;;64.38;49.75;;;5.70;99.90;;;;;;4986372;28;20075;-76
2021/12/24 07:54:35;;;;;;;59.05;48.15;;;5.80;99.90;;;;;;4969334;28;20025;-77
2021/12/24 07:57:01;;;;;;;49.03;39.33;;;5.80;99.90;;;;;;4981019;28;20023;-76
2021/12/24 07:59:28;;;;;;;35.50;27.83;;;5.80;99.90;;;;;;4973732;28;20023;-76
2021/12/24 08:01:55;;;;;;;43.80;31.90;;;5.90;99.90;;;;;;4986723;28;20054;-76
2021/12/24 08:04:20;;;;;;;50.65;45.15;;;5.80;99.90;;;;;;4980800;28;20034;-76
2021/12/24 08:06:46;;;;;;;46.30;38.75;;;6.00;99.90;;;;;;4980187;28;20074;-75
2021/12/24 08:09:12;;;;;;;44.10;38.28;;;6.00;99.90;;;;;;4986086;28;20034;-76
2021/12/24 08:11:38;;;;;;;47.30;39.70;;;5.90;99.90;;;;;;4977983;28;20030;-76
2021/12/24 08:14:06;;;;;;;34.42;28.65;;;6.00;99.90;;;;;;4980365;28;20027;-76
2021/12/24 08:16:32;;;;;;;69.15;53.70;;;6.00;99.90;;;;;;4979755;28;20023;-76
2021/12/24 08:18:58;;;;;;;56.50;50.10;;;6.10;99.90;;;;;;4985876;28;20112;-79
2021/12/24 08:21:25;;;;;;;35.67;31.83;;;6.00;99.90;;;;;;4977206;28;20702;-78
2021/12/24 08:23:51;;;;;;;35.53;31.65;;;6.00;99.90;;;;;;4982223;28;20038;-76
2021/12/24 08:26:17;;;;;;;30.10;26.63;;;6.10;99.90;;;;;;4979477;28;20038;-76
2021/12/24 08:28:43;;;;;;;28.13;24.45;;;6.30;99.90;;;;;;4985257;28;20026;-76
2021/12/24 08:31:09;;;;;;;29.65;24.60;;;6.10;99.90;;;;;;4986139;28;20034;-76
2021/12/24 08:33:35;;;;;;;26.65;22.13;;;6.00;99.90;;;;;;4980750;28;20033;-77
2021/12/24 08:36:02;;;;;;;26.65;21.77;;;6.20;99.90;;;;;;4979354;28;20109;-76
2021/12/24 08:38:28;;;;;;;24.17;21.38;;;6.00;99.90;;;;;;4984820;28;20027;-77
2021/12/24 08:40:53;;;;;;;23.13;20.58;;;6.00;99.90;;;;;;4986173;28;20535;-76
2021/12/24 08:43:19;;;;;;;27.98;25.08;;;6.10;99.90;;;;;;4980629;28;20022;-77
2021/12/24 08:45:45;;;;;;;24.00;21.42;;;6.20;99.90;;;;;;4978607;28;20034;-77
2021/12/24 08:48:11;;;;;;;25.13;20.58;;;6.10;99.90;;;;;;4973104;28;20050;-77
2021/12/24 08:50:36;;;;;;;22.48;19.00;;;6.20;99.90;;;;;;4974539;28;20065;-77
2021/12/24 08:53:03;;;;;;;23.70;20.67;;;6.20;99.90;;;;;;4983173;28;20027;-77
2021/12/24 08:55:29;;;;;;;20.77;17.83;;;6.30;99.90;;;;;;4986440;28;20113;-78
2021/12/24 08:57:54;;;;;;;25.08;21.30;;;6.30;99.90;;;;;;4982912;28;20054;-77
2021/12/24 09:00:21;;;;;;;23.55;21.08;;;6.30;99.90;;;;;;4981326;28;20065;-78
2021/12/24 09:02:47;;;;;;;44.35;39.80;;;6.30;99.90;;;;;;4995399;28;20026;-77
2021/12/24 09:05:13;;;;;;;23.17;20.25;;;6.30;99.90;;;;;;4983913;28;20039;-78
2021/12/24 09:07:40;;;;;;;28.48;23.17;;;6.30;99.90;;;;;;4985209;28;20388;-77
2021/12/24 09:10:08;;;;;;;25.90;22.70;;;6.40;99.90;;;;;;4981740;28;20034;-77
2021/12/24 09:12:34;;;;;;;22.42;19.33;;;6.30;99.90;;;;;;4985077;28;20031;-77
2021/12/24 09:15:00;;;;;;;22.13;19.30;;;6.40;99.90;;;;;;4977271;28;20387;-78
2021/12/24 09:17:28;;;;;;;23.83;19.88;;;6.50;99.90;;;;;;4989465;28;20027;-77
2021/12/24 09:19:54;;;;;;;21.15;17.48;;;6.40;99.90;;;;;;4980560;28;20022;-77
2021/12/24 09:22:28;;;;;;;21.80;18.10;;;6.60;99.90;;;;;;4984715;28;20022;-77
2021/12/24 09:24:54;;;;;;;18.67;16.63;;;6.60;99.90;;;;;;4978539;28;20023;-77
2021/12/24 09:27:20;;;;;;;16.20;14.35;;;6.40;99.90;;;;;;4985861;28;20030;-77
2021/12/24 09:29:46;;;;;;;15.27;13.57;;;6.60;99.90;;;;;;4983420;28;20015;-77
2021/12/24 09:32:12;;;;;;;17.70;14.32;;;6.70;99.90;;;;;;4986271;28;20054;-77
2021/12/24 09:34:37;;;;;;;13.40;11.45;;;6.70;99.90;;;;;;4977778;28;20033;-77
2021/12/24 09:37:03;;;;;;;12.95;11.45;;;6.80;99.90;;;;;;4978791;28;20023;-77
2021/12/24 09:39:29;;;;;;;13.40;11.07;;;6.80;99.90;;;;;;4980490;28;20069;-78
2021/12/24 09:41:55;;;;;;;13.63;11.80;;;6.80;99.90;;;;;;4985728;28;20085;-77
2021/12/24 09:44:21;;;;;;;12.50;11.20;;;6.70;99.90;;;;;;4974805;28;20031;-78
2021/12/24 09:46:46;;;;;;;15.50;12.27;;;6.60;99.90;;;;;;4986293;28;20646;-77
2021/12/24 09:49:13;;;;;;;14.48;12.15;;;6.60;99.90;;;;;;4979152;28;20034;-77
2021/12/24 09:51:41;;;;;;;13.25;11.95;;;6.50;99.90;;;;;;4984650;28;20030;-77
2021/12/24 09:54:25;;;;;;;13.73;11.18;;;6.60;99.90;;;;;;4981473;28;20109;-77
2021/12/24 09:56:53;;;;;;;13.13;11.70;;;6.70;99.90;;;;;;4982886;28;20023;-76
2021/12/24 09:59:19;;;;;;;13.63;11.77;;;6.50;99.90;;;;;;4980614;28;20026;-76
2021/12/24 10:01:59;;;;;;;13.75;11.75;;;6.70;99.90;;;;;;4981470;28;20541;-76
2021/12/24 10:04:28;;;;;;;12.30;10.13;;;6.70;99.90;;;;;;4971832;28;20033;-76
2021/12/24 10:07:06;;;;;;;11.50;10.02;;;6.90;99.90;;;;;;4979356;28;20031;-76
2021/12/24 10:09:35;;;;;;;11.85;10.43;;;6.90;99.90;;;;;;4985334;28;20207;-76
2021/12/24 10:12:07;;;;;;;10.90;9.15;;;6.90;99.90;;;;;;4978440;28;20039;-76
2021/12/24 10:14:36;;;;;;;11.10;9.15;;;6.90;99.90;;;;;;4979426;28;20497;-76
2021/12/24 10:17:03;;;;;;;10.43;8.98;;;6.90;99.90;;;;;;4977620;28;20027;-75
2021/12/24 10:19:29;;;;;;;10.23;8.70;;;7.00;99.90;;;;;;4982305;28;20025;-76
2021/12/24 10:22:03;;;;;;;10.90;8.75;;;7.00;99.90;;;;;;4987151;28;20459;-75
2021/12/24 10:24:30;;;;;;;9.68;8.02;;;7.00;99.90;;;;;;4968264;28;20511;-75
2021/12/24 10:27:00;;;;;;;9.70;8.18;;;7.10;99.90;;;;;;4974177;28;20515;-77
2021/12/24 10:29:38;;;;;;;9.77;7.80;;;7.00;99.90;;;;;;4993298;28;20054;-77
2021/12/24 10:32:11;;;;;;;10.90;8.38;;;7.20;99.90;;;;;;4968585;28;20035;-74
2021/12/24 10:34:38;;;;;;;11.80;8.30;;;7.10;99.90;;;;;;4988652;28;20033;-77
2021/12/24 10:37:18;;;;;;;10.35;8.43;;;7.10;99.90;;;;;;4984471;28;20033;-77
2021/12/24 10:39:47;;;;;;;9.88;7.75;;;7.10;99.90;;;;;;4977951;28;20022;-77
2021/12/24 10:42:16;;;;;;;10.25;7.68;;;7.20;99.90;;;;;;4980945;28;20117;-77
2021/12/24 10:44:43;;;;;;;9.65;7.50;;;7.20;99.90;;;;;;4983886;28;20035;-77
2021/12/24 10:47:12;;;;;;;7.78;6.88;;;7.30;99.90;;;;;;4982597;28;20023;-77
2021/12/24 10:50:13;;;;;;;8.48;6.57;;;7.20;99.90;;;;;;4971373;28;20118;-77
2021/12/24 10:52:56;;;;;;;8.95;7.07;;;7.30;99.90;;;;;;4973577;28;20489;-77
2021/12/24 10:55:22;;;;;;;10.20;7.60;;;7.20;99.90;;;;;;4975318;28;20026;-77
2021/12/24 10:57:51;;;;;;;8.88;6.50;;;7.20;99.90;;;;;;4985685;28;20366;-77
2021/12/24 11:00:19;;;;;;;8.55;6.00;;;7.30;99.90;;;;;;4974837;28;20025;-76
2021/12/24 11:02:51;;;;;;;7.32;5.70;;;7.30;99.90;;;;;;4982857;28;20509;-76
2021/12/24 11:05:44;;;;;;;8.20;5.85;;;7.20;99.90;;;;;;4977773;28;20033;-75
2021/12/24 11:08:13;;;;;;;9.52;6.00;;;7.30;99.90;;;;;;4975241;28;20090;-75
2021/12/24 11:10:42;;;;;;;7.50;5.43;;;7.40;99.90;;;;;;4986248;28;20085;-75
2021/12/24 11:13:12;;;;;;;6.55;5.07;;;7.40;99.90;;;;;;4987698;28;20026;-76
2021/12/24 11:15:49;;;;;;;8.27;5.07;;;7.40;99.90;;;;;;4968981;28;20026;-75
2021/12/24 11:18:27;;;;;;;6.63;5.43;;;7.40;99.90;;;;;;4981066;28;20158;-76
2021/12/24 11:21:02;;;;;;;6.53;4.78;;;7.40;99.90;;;;;;4983905;28;20481;-75
2021/12/24 11:23:29;;;;;;;8.15;5.40;;;7.50;99.90;;;;;;4986067;28;20397;-76
2021/12/24 11:25:58;;;;;;;7.68;5.57;;;7.50;99.90;;;;;;4983924;28;20053;-76
2021/12/24 11:28:25;;;;;;;8.38;5.63;;;7.50;99.90;;;;;;4979296;28;20026;-75
2021/12/24 11:31:14;;;;;;;8.02;5.45;;;7.60;99.90;;;;;;4980247;28;20085;-75
2021/12/24 11:33:42;;;;;;;9.43;6.13;;;7.50;99.90;;;;;;4971712;28;20018;-76
2021/12/24 11:36:10;;;;;;;7.60;5.70;;;7.50;99.90;;;;;;4980671;28;20023;-75
2021/12/24 11:38:38;;;;;;;8.95;5.85;;;7.60;99.90;;;;;;4984664;28;20084;-76
2021/12/24 11:41:06;;;;;;;9.70;6.28;;;7.50;99.90;;;;;;4973987;28;20121;-76
2021/12/24 11:43:35;;;;;;;9.02;6.03;;;7.50;99.90;;;;;;4973996;28;20027;-76
2021/12/24 11:46:05;;;;;;;7.28;6.38;;;7.40;99.90;;;;;;4986689;28;20027;-76
2021/12/24 11:48:33;;;;;;;8.73;6.30;;;7.40;99.90;;;;;;4973876;28;20037;-76
2021/12/24 11:51:01;;;;;;;8.63;6.38;;;7.50;99.90;;;;;;4978163;28;20074;-76
2021/12/24 11:53:27;;;;;;;9.88;6.65;;;7.40;99.90;;;;;;4981918;28;20386;-76
2021/12/24 11:55:53;;;;;;;11.05;7.68;;;7.40;99.90;;;;;;4988479;28;20073;-73
2021/12/24 11:58:25;;;;;;;10.40;7.65;;;7.40;99.90;;;;;;4972391;28;20371;-76
2021/12/24 12:00:54;;;;;;;9.45;7.82;;;7.30;99.90;;;;;;4984827;28;20125;-75
2021/12/24 12:03:36;;;;;;;9.88;7.05;;;7.30;99.90;;;;;;4976559;28;20030;-75
2021/12/24 12:06:10;;;;;;;9.65;7.38;;;7.30;99.90;;;;;;4974574;28;20027;-76
2021/12/24 12:08:39;;;;;;;10.77;7.90;;;7.40;99.90;;;;;;4975409;28;20085;-75
2021/12/24 12:11:24;;;;;;;12.00;8.43;;;7.30;99.90;;;;;;4983589;28;20050;-76
2021/12/24 12:13:59;;;;;;;10.55;7.97;;;7.30;99.90;;;;;;4970726;28;20023;-76
2021/12/24 12:16:39;;;;;;;11.93;8.10;;;7.30;99.90;;;;;;4969257;28;20409;-75
2021/12/24 12:19:28;;;;;;;12.27;8.23;;;7.40;99.90;;;;;;4979512;28;20022;-76
2021/12/24 12:22:25;;;;;;;12.73;8.20;;;7.40;99.90;;;;;;4978380;28;20041;-76
2021/12/24 12:25:00;;;;;;;10.73;8.23;;;7.40;99.90;;;;;;4978515;28;20035;-76
2021/12/24 12:27:33;;;;;;;12.13;7.70;;;7.40;99.90;;;;;;4982420;28;20042;-76
2021/12/24 12:30:23;;;;;;;9.60;7.57;;;7.50;99.90;;;;;;4976544;28;20786;-76
2021/12/24 12:32:51;;;;;;;9.77;7.75;;;7.50;99.90;;;;;;4986275;28;20096;-76
2021/12/24 12:35:18;;;;;;;10.10;7.30;;;7.40;99.90;;;;;;4974633;28;20109;-74
2021/12/24 12:37:49;;;;;;;11.45;7.90;;;7.50;99.90;;;;;;4970873;28;20392;-77
2021/12/24 12:40:17;;;;;;;10.95;7.60;;;7.50;99.90;;;;;;4982758;28;20473;-76
2021/12/24 12:42:50;;;;;;;10.57;7.25;;;7.50;99.90;;;;;;4979403;28;20014;-76
2021/12/24 12:45:19;;;;;;;11.23;7.45;;;7.50;99.90;;;;;;4981140;28;20066;-77
2021/12/24 12:47:57;;;;;;;12.27;7.65;;;7.50;99.90;;;;;;4987154;28;20026;-75
2021/12/24 12:50:24;;;;;;;10.57;7.28;;;7.40;99.90;;;;;;4972214;28;20037;-76
2021/12/24 12:52:53;;;;;;;12.48;7.55;;;7.50;99.90;;;;;;4975569;28;20054;-73
2021/12/24 12:55:31;;;;;;;10.90;7.50;;;7.60;99.90;;;;;;4984687;28;20027;-77
2021/12/24 12:58:23;;;;;;;9.88;7.50;;;7.60;99.90;;;;;;4970446;28;20031;-77
2021/12/24 13:01:19;;;;;;;12.60;7.90;;;7.60;99.90;;;;;;4983708;28;20033;-77
2021/12/24 13:04:00;;;;;;;9.55;7.25;;;7.50;99.90;;;;;;4990174;28;20113;-76
2021/12/24 13:06:47;;;;;;;11.80;7.38;;;7.50;99.90;;;;;;4984635;28;20023;-76
2021/12/24 13:09:16;;;;;;;11.45;6.68;;;7.60;99.90;;;;;;4968217;28;20053;-76
2021/12/24 13:11:45;;;;;;;10.23;7.32;;;7.50;99.90;;;;;;4987842;28;20053;-76
2021/12/24 13:14:12;;;;;;;11.35;6.78;;;7.50;99.90;;;;;;4983132;28;20097;-76
2021/12/24 13:16:44;;;;;;;9.10;6.90;;;7.50;99.90;;;;;;4972448;28;20026;-74
2021/12/24 13:25:10;;;;;;;10.03;7.17;;;7.50;99.90;;;;;;4980786;28;20420;-76
2021/12/24 13:27:40;;;;;;;10.85;7.10;;;7.50;99.90;;;;;;4976190;28;20035;-78
2021/12/24 13:30:11;;;;;;;9.80;6.68;;;7.40;99.90;;;;;;4978844;28;20031;-77
2021/12/24 13:32:42;;;;;;;10.23;7.60;;;7.40;99.90;;;;;;4977952;28;20045;-76
2021/12/24 13:35:08;;;;;;;10.15;6.38;;;7.40;99.90;;;;;;4972866;28;20098;-76
2021/12/24 13:37:34;;;;;;;9.52;5.95;;;7.50;99.90;;;;;;5006023;23;20087;-74
2021/12/24 13:40:00;;;;;;;8.70;6.75;;;7.50;99.90;;;;;;5018791;28;20030;-74
2021/12/24 13:42:26;;;;;;;9.27;7.10;;;7.50;99.90;;;;;;5020412;28;20102;-74
2021/12/24 13:45:01;;;;;;;10.18;6.63;;;7.50;99.90;;;;;;5020621;28;20049;-74
2021/12/24 13:47:44;;;;;;;11.00;6.22;;;7.50;99.90;;;;;;5014063;28;20022;-74
2021/12/24 13:55:46;;;;;;;13.40;6.65;;;7.50;99.90;;;;;;5014662;28;20036;-74
2021/12/24 13:58:14;;;;;;;10.70;7.35;;;7.50;99.90;;;;;;5025273;28;20376;-74
2021/12/24 14:00:55;;;;;;;8.95;6.57;;;7.50;99.90;;;;;;5026308;28;20034;-73
2021/12/24 14:03:29;;;;;;;10.43;6.65;;;7.60;99.90;;;;;;5025679;28;20467;-74
2021/12/24 14:05:58;;;;;;;10.88;7.72;;;7.40;99.90;;;;;;5025214;28;20025;-74
2021/12/24 14:08:32;;;;;;;11.15;7.72;;;7.40;99.90;;;;;;5024089;28;20041;-73
2021/12/24 14:11:22;;;;;;;10.75;7.32;;;7.40;99.90;;;;;;5026325;28;20032;-74
2021/12/24 14:13:56;;;;;;;9.38;7.75;;;7.40;99.90;;;;;;5027933;28;20022;-73
2021/12/24 14:17:32;;;;;;;11.23;7.97;;;7.30;99.90;;;;;;5025656;28;20449;-74
2021/12/24 14:19:28;;;;;;;13.18;8.27;;;7.20;99.90;;;;;;5018625;28;20099;-74
2021/12/24 14:22:09;;;;;;;11.82;8.23;;;7.20;99.90;;;;;;5035699;28;20036;-74
2021/12/24 14:24:36;;;;;;;10.65;8.85;;;7.20;99.90;;;;;;5023831;28;20088;-74
2021/12/24 14:27:10;;;;;;;13.85;9.30;;;7.20;99.90;;;;;;5041540;28;20068;-74
2021/12/24 14:29:41;;;;;;;13.05;9.40;;;7.10;99.90;;;;;;5017565;28;20030;-74
2021/12/24 14:32:13;;;;;;;12.10;9.65;;;7.10;99.90;;;;;;5022107;28;20180;-74
2021/12/24 14:34:53;;;;;;;14.25;9.75;;;7.10;99.90;;;;;;5044722;28;20025;-74
2021/12/24 14:37:34;;;;;;;14.02;10.13;;;7.10;99.90;;;;;;5047184;28;20082;-73
2021/12/24 14:40:07;;;;;;;13.40;10.05;;;7.00;99.90;;;;;;5040253;28;20039;-74
2021/12/24 14:42:32;;;;;;;14.60;11.30;;;7.00;99.90;;;;;;5035760;28;20014;-74